Terminal Aerodrome Forecast
Issued by NWS Lubbock, TX

Current Version | Previous Version | Text Only | Print | Product List | Glossary On
Versions: 1 2 3 4 5 6 7 8 9 10 11 12
962
FTUS44 KLUB 122326
TAFLBB
TAF
KLBB 122326Z 1300/1324 13011KT P6SM SKC
     FM131000 11010KT 6SM BR BKN012
     FM131600 19015KT P6SM FEW030 SCT250=

USA.gov is the U.S. government's official web portal to all federal, state and local government web resources and services.